sensor_id;sensor_type;location;lat;lon;timestamp;temperature;humidity
16674;DHT22;8450;52.654;10.326;2022-09-17T05:48:33;11.10;99.90
16674;DHT22;8450;52.654;10.326;2022-09-17T05:50:59;11.10;99.90
16674;DHT22;8450;52.654;10.326;2022-09-17T05:53:25;11.10;99.90
16674;DHT22;8450;52.654;10.326;2022-09-17T05:55:54;11.10;99.90
16674;DHT22;8450;52.654;10.326;2022-09-17T05:58:21;11.10;99.90
16674;DHT22;8450;52.654;10.326;2022-09-17T06:00:46;11.10;99.90
16674;DHT22;8450;52.654;10.326;2022-09-17T06:03:14;11.10;99.90
16674;DHT22;8450;52.654;10.326;2022-09-17T06:05:41;11.10;99.90
16674;DHT22;8450;52.654;10.326;2022-09-17T06:08:07;11.10;99.90
16674;DHT22;8450;52.654;10.326;2022-09-17T06:10:37;11.10;99.90
16674;DHT22;8450;52.654;10.326;2022-09-17T06:13:02;11.10;99.90
16674;DHT22;8450;52.654;10.326;2022-09-17T06:15:28;11.20;99.90
16674;DHT22;8450;52.654;10.326;2022-09-17T06:17:54;11.10;99.90
16674;DHT22;8450;52.654;10.326;2022-09-17T06:20:19;11.10;99.90
16674;DHT22;8450;52.654;10.326;2022-09-17T06:22:45;11.20;99.90
16674;DHT22;8450;52.654;10.326;2022-09-17T06:25:11;11.20;99.90
16674;DHT22;8450;52.654;10.326;2022-09-17T06:27:37;11.20;99.90
16674;DHT22;8450;52.654;10.326;2022-09-17T06:30:03;11.20;99.90
16674;DHT22;8450;52.654;10.326;2022-09-17T06:32:29;11.20;99.90
16674;DHT22;8450;52.654;10.326;2022-09-17T06:34:54;11.30;99.90
16674;DHT22;8450;52.654;10.326;2022-09-17T06:37:31;11.20;99.90
16674;DHT22;8450;52.654;10.326;2022-09-17T06:39:57;11.30;99.90
16674;DHT22;8450;52.654;10.326;2022-09-17T06:42:24;11.30;99.90
16674;DHT22;8450;52.654;10.326;2022-09-17T06:44:50;11.30;99.90
16674;DHT22;8450;52.654;10.326;2022-09-17T06:47:15;11.30;99.90
16674;DHT22;8450;52.654;10.326;2022-09-17T06:49:41;11.30;99.90
16674;DHT22;8450;52.654;10.326;2022-09-17T06:52:06;11.40;99.90
16674;DHT22;8450;52.654;10.326;2022-09-17T06:54:32;11.40;99.90
16674;DHT22;8450;52.654;10.326;2022-09-17T06:56:58;11.40;99.90
16674;DHT22;8450;52.654;10.326;2022-09-17T06:59:23;11.40;99.90
16674;DHT22;8450;52.654;10.326;2022-09-17T07:01:49;11.40;99.90
16674;DHT22;8450;52.654;10.326;2022-09-17T07:04:15;11.40;99.90
16674;DHT22;8450;52.654;10.326;2022-09-17T07:06:43;11.40;99.90
16674;DHT22;8450;52.654;10.326;2022-09-17T07:09:09;11.40;99.90
16674;DHT22;8450;52.654;10.326;2022-09-17T07:11:36;11.40;99.90
16674;DHT22;8450;52.654;10.326;2022-09-17T07:14:02;11.50;99.90
16674;DHT22;8450;52.654;10.326;2022-09-17T07:16:28;11.60;99.90
16674;DHT22;8450;52.654;10.326;2022-09-17T07:18:57;11.70;99.90
16674;DHT22;8450;52.654;10.326;2022-09-17T07:21:23;11.80;99.90
16674;DHT22;8450;52.654;10.326;2022-09-17T07:23:50;11.90;99.90
16674;DHT22;8450;52.654;10.326;2022-09-17T07:26:16;12.00;99.90
16674;DHT22;8450;52.654;10.326;2022-09-17T07:28:42;12.10;99.90
16674;DHT22;8450;52.654;10.326;2022-09-17T07:31:09;12.20;99.90
16674;DHT22;8450;52.654;10.326;2022-09-17T07:33:36;12.30;99.90
16674;DHT22;8450;52.654;10.326;2022-09-17T07:36:05;12.30;99.90
16674;DHT22;8450;52.654;10.326;2022-09-17T07:38:30;12.40;99.90
16674;DHT22;8450;52.654;10.326;2022-09-17T07:41:09;12.50;99.90
16674;DHT22;8450;52.654;10.326;2022-09-17T07:43:38;12.50;99.90
16674;DHT22;8450;52.654;10.326;2022-09-17T07:46:06;12.60;99.90
16674;DHT22;8450;52.654;10.326;2022-09-17T07:48:33;12.70;99.90
16674;DHT22;8450;52.654;10.326;2022-09-17T07:50:58;12.70;99.90
16674;DHT22;8450;52.654;10.326;2022-09-17T07:53:24;12.70;99.90
16674;DHT22;8450;52.654;10.326;2022-09-17T07:55:58;12.70;99.90
16674;DHT22;8450;52.654;10.326;2022-09-17T07:58:34;12.70;99.90
16674;DHT22;8450;52.654;10.326;2022-09-17T08:01:06;12.70;99.90
16674;DHT22;8450;52.654;10.326;2022-09-17T08:03:34;12.80;99.90
16674;DHT22;8450;52.654;10.326;2022-09-17T08:06:03;12.90;99.90
16674;DHT22;8450;52.654;10.326;2022-09-17T08:08:33;12.90;99.90
16674;DHT22;8450;52.654;10.326;2022-09-17T08:11:11;13.10;99.90
16674;DHT22;8450;52.654;10.326;2022-09-17T08:13:37;13.20;99.90
16674;DHT22;8450;52.654;10.326;2022-09-17T08:16:10;13.30;99.90
16674;DHT22;8450;52.654;10.326;2022-09-17T08:18:40;13.40;99.90
16674;DHT22;8450;52.654;10.326;2022-09-17T08:21:07;13.60;99.90
16674;DHT22;8450;52.654;10.326;2022-09-17T08:23:35;13.70;99.90
16674;DHT22;8450;52.654;10.326;2022-09-17T08:26:02;13.80;99.90
16674;DHT22;8450;52.654;10.326;2022-09-17T08:28:29;13.90;99.90
16674;DHT22;8450;52.654;10.326;2022-09-17T08:31:04;14.00;99.90
16674;DHT22;8450;52.654;10.326;2022-09-17T08:33:31;14.00;99.90
16674;DHT22;8450;52.654;10.326;2022-09-17T08:35:57;14.20;99.90
16674;DHT22;8450;52.654;10.326;2022-09-17T08:38:26;14.20;99.90
16674;DHT22;8450;52.654;10.326;2022-09-17T08:46:38;14.40;99.90
16674;DHT22;8450;52.654;10.326;2022-09-17T08:49:17;14.50;99.90
16674;DHT22;8450;52.654;10.326;2022-09-17T08:52:06;14.60;99.90
16674;DHT22;8450;52.654;10.326;2022-09-17T08:57:49;14.70;99.90
16674;DHT22;8450;52.654;10.326;2022-09-17T09:00:19;14.80;99.90
16674;DHT22;8450;52.654;10.326;2022-09-17T09:02:59;14.90;99.90
16674;DHT22;8450;52.654;10.326;2022-09-17T09:05:30;14.80;99.90
16674;DHT22;8450;52.654;10.326;2022-09-17T09:08:12;14.80;99.90
16674;DHT22;8450;52.654;10.326;2022-09-17T09:13:13;14.80;99.90
16674;DHT22;8450;52.654;10.326;2022-09-17T09:15:44;15.00;99.90
16674;DHT22;8450;52.654;10.326;2022-09-17T09:18:23;15.10;99.90
16674;DHT22;8450;52.654;10.326;2022-09-17T09:21:02;15.10;99.90
16674;DHT22;8450;52.654;10.326;2022-09-17T09:23:51;15.00;99.90
16674;DHT22;8450;52.654;10.326;2022-09-17T09:26:22;15.20;99.90
16674;DHT22;8450;52.654;10.326;2022-09-17T09:29:15;15.20;99.90
16674;DHT22;8450;52.654;10.326;2022-09-17T09:34:36;15.30;99.90
16674;DHT22;8450;52.654;10.326;2022-09-17T09:37:20;15.50;99.90
16674;DHT22;8450;52.654;10.326;2022-09-17T09:39:50;15.60;99.90
16674;DHT22;8450;52.654;10.326;2022-09-17T09:42:27;15.70;99.90
16674;DHT22;8450;52.654;10.326;2022-09-17T09:44:57;15.90;99.90
16674;DHT22;8450;52.654;10.326;2022-09-17T09:53:18;16.20;99.90
16674;DHT22;8450;52.654;10.326;2022-09-17T09:58:38;16.20;99.90
16674;DHT22;8450;52.654;10.326;2022-09-17T10:01:14;16.20;99.90
16674;DHT22;8450;52.654;10.326;2022-09-17T10:03:42;16.10;99.90
16674;DHT22;8450;52.654;10.326;2022-09-17T10:06:11;16.20;99.90
16674;DHT22;8450;52.654;10.326;2022-09-17T10:11:26;16.00;99.90
16674;DHT22;8450;52.654;10.326;2022-09-17T10:13:52;16.10;99.90
16674;DHT22;8450;52.654;10.326;2022-09-17T10:16:25;16.20;99.90
16674;DHT22;8450;52.654;10.326;2022-09-17T10:21:36;16.10;99.90
16674;DHT22;8450;52.654;10.326;2022-09-17T10:24:08;16.20;99.90
16674;DHT22;8450;52.654;10.326;2022-09-17T10:26:38;16.30;99.90
16674;DHT22;8450;52.654;10.326;2022-09-17T10:29:18;16.40;99.90
16674;DHT22;8450;52.654;10.326;2022-09-17T10:34:28;16.60;99.90
16674;DHT22;8450;52.654;10.326;2022-09-17T10:36:55;16.70;99.90
16674;DHT22;8450;52.654;10.326;2022-09-17T10:44:31;16.10;99.90
16674;DHT22;8450;52.654;10.326;2022-09-17T10:47:03;15.80;99.90
16674;DHT22;8450;52.654;10.326;2022-09-17T10:49:45;15.30;99.90
16674;DHT22;8450;52.654;10.326;2022-09-17T10:52:26;15.30;99.90
16674;DHT22;8450;52.654;10.326;2022-09-17T10:58:03;14.70;99.90
16674;DHT22;8450;52.654;10.326;2022-09-17T11:03:12;14.30;99.90
16674;DHT22;8450;52.654;10.326;2022-09-17T11:06:06;14.30;99.90
16674;DHT22;8450;52.654;10.326;2022-09-17T11:08:43;14.20;99.90
16674;DHT22;8450;52.654;10.326;2022-09-17T11:11:28;14.20;99.90
16674;DHT22;8450;52.654;10.326;2022-09-17T11:16:54;13.90;99.90
16674;DHT22;8450;52.654;10.326;2022-09-17T11:19:57;14.00;99.90
16674;DHT22;8450;52.654;10.326;2022-09-17T11:22:44;13.90;99.90
16674;DHT22;8450;52.654;10.326;2022-09-17T11:28:57;13.60;99.90
16674;DHT22;8450;52.654;10.326;2022-09-17T11:31:59;13.50;99.90
16674;DHT22;8450;52.654;10.326;2022-09-17T11:39:59;13.20;99.90
16674;DHT22;8450;52.654;10.326;2022-09-17T11:42:31;13.20;99.90
16674;DHT22;8450;52.654;10.326;2022-09-17T11:45:18;13.10;99.90
16674;DHT22;8450;52.654;10.326;2022-09-17T11:48:09;13.10;99.90
16674;DHT22;8450;52.654;10.326;2022-09-17T11:50:55;13.20;99.90
16674;DHT22;8450;52.654;10.326;2022-09-17T11:55:59;13.10;99.90
16674;DHT22;8450;52.654;10.326;2022-09-17T11:58:43;13.00;99.90
16674;DHT22;8450;52.654;10.326;2022-09-17T12:01:49;13.00;99.90
16674;DHT22;8450;52.654;10.326;2022-09-17T12:04:42;12.90;99.90
16674;DHT22;8450;52.654;10.326;2022-09-17T12:09:54;12.70;99.90
16674;DHT22;8450;52.654;10.326;2022-09-17T12:12:23;12.80;99.90
16674;DHT22;8450;52.654;10.326;2022-09-17T12:14:57;12.60;99.90
16674;DHT22;8450;52.654;10.326;2022-09-17T12:17:36;12.60;99.90
16674;DHT22;8450;52.654;10.326;2022-09-17T12:20:13;12.40;99.90
16674;DHT22;8450;52.654;10.326;2022-09-17T12:22:45;12.30;99.90
16674;DHT22;8450;52.654;10.326;2022-09-17T12:25:12;12.30;99.90
16674;DHT22;8450;52.654;10.326;2022-09-17T12:27:51;12.30;99.90
16674;DHT22;8450;52.654;10.326;2022-09-17T12:30:20;12.30;99.90
16674;DHT22;8450;52.654;10.326;2022-09-17T12:35:32;12.30;99.90
16674;DHT22;8450;52.654;10.326;2022-09-17T12:38:12;12.30;99.90
16674;DHT22;8450;52.654;10.326;2022-09-17T12:40:59;12.30;99.90
16674;DHT22;8450;52.654;10.326;2022-09-17T12:51:22;12.20;99.90
16674;DHT22;8450;52.654;10.326;2022-09-17T12:54:03;12.20;99.90
16674;DHT22;8450;52.654;10.326;2022-09-17T12:59:16;12.10;99.90
16674;DHT22;8450;52.654;10.326;2022-09-17T13:02:13;12.10;99.90
16674;DHT22;8450;52.654;10.326;2022-09-17T13:05:03;12.10;99.90
16674;DHT22;8450;52.654;10.326;2022-09-17T13:11:03;11.90;99.90
16674;DHT22;8450;52.654;10.326;2022-09-17T13:13:41;11.90;99.90
16674;DHT22;8450;52.654;10.326;2022-09-17T13:16:20;11.90;99.90
16674;DHT22;8450;52.654;10.326;2022-09-17T13:19:10;11.90;99.90
16674;DHT22;8450;52.654;10.326;2022-09-17T13:21:59;11.80;99.90
16674;DHT22;8450;52.654;10.326;2022-09-17T13:24:27;11.80;99.90
16674;DHT22;8450;52.654;10.326;2022-09-17T13:26:55;11.70;99.90
16674;DHT22;8450;52.654;10.326;2022-09-17T13:32:07;11.80;99.90
16674;DHT22;8450;52.654;10.326;2022-09-17T13:34:32;11.80;99.90
16674;DHT22;8450;52.654;10.326;2022-09-17T13:37:04;11.70;99.90
16674;DHT22;8450;52.654;10.326;2022-09-17T13:39:45;11.60;99.90
16674;DHT22;8450;52.654;10.326;2022-09-17T13:42:22;11.70;99.90
16674;DHT22;8450;52.654;10.326;2022-09-17T13:45:21;11.60;99.90
16674;DHT22;8450;52.654;10.326;2022-09-17T13:47:57;11.60;99.90
16674;DHT22;8450;52.654;10.326;2022-09-17T13:50:31;11.60;99.90
16674;DHT22;8450;52.654;10.326;2022-09-17T13:53:04;11.60;99.90
16674;DHT22;8450;52.654;10.326;2022-09-17T13:55:39;11.60;99.90
16674;DHT22;8450;52.654;10.326;2022-09-17T13:58:12;11.60;99.90
16674;DHT22;8450;52.654;10.326;2022-09-17T14:01:00;11.60;99.90
16674;DHT22;8450;52.654;10.326;2022-09-17T14:14:33;11.60;99.90
16674;DHT22;8450;52.654;10.326;2022-09-17T14:17:00;11.60;99.90
16674;DHT22;8450;52.654;10.326;2022-09-17T14:19:32;11.60;99.90
16674;DHT22;8450;52.654;10.326;2022-09-17T14:22:11;11.60;99.90
16674;DHT22;8450;52.654;10.326;2022-09-17T14:24:45;11.60;99.90
16674;DHT22;8450;52.654;10.326;2022-09-17T14:30:04;11.60;99.90
16674;DHT22;8450;52.654;10.326;2022-09-17T14:38:11;11.60;99.90
16674;DHT22;8450;52.654;10.326;2022-09-17T14:40:43;11.60;99.90
16674;DHT22;8450;52.654;10.326;2022-09-17T14:43:26;11.60;99.90
16674;DHT22;8450;52.654;10.326;2022-09-17T14:45:54;11.60;99.90
16674;DHT22;8450;52.654;10.326;2022-09-17T14:48:31;11.70;99.90
16674;DHT22;8450;52.654;10.326;2022-09-17T14:51:31;11.60;99.90
16674;DHT22;8450;52.654;10.326;2022-09-17T14:54:28;11.70;99.90
16674;DHT22;8450;52.654;10.326;2022-09-17T14:57:00;11.70;99.90
16674;DHT22;8450;52.654;10.326;2022-09-17T15:03:35;11.60;99.90
16674;DHT22;8450;52.654;10.326;2022-09-17T15:06:00;11.60;99.90
16674;DHT22;8450;52.654;10.326;2022-09-17T15:08:26;11.60;99.90
16674;DHT22;8450;52.654;10.326;2022-09-17T15:11:01;11.50;99.90
16674;DHT22;8450;52.654;10.326;2022-09-17T15:13:41;11.50;99.90
16674;DHT22;8450;52.654;10.326;2022-09-17T15:16:19;11.50;99.90
16674;DHT22;8450;52.654;10.326;2022-09-17T15:18:57;11.50;99.90
16674;DHT22;8450;52.654;10.326;2022-09-17T15:21:41;11.50;99.90
16674;DHT22;8450;52.654;10.326;2022-09-17T15:24:21;11.50;99.90
16674;DHT22;8450;52.654;10.326;2022-09-17T15:26:51;11.50;99.90
16674;DHT22;8450;52.654;10.326;2022-09-17T15:29:20;11.50;99.90
16674;DHT22;8450;52.654;10.326;2022-09-17T15:31:46;11.50;99.90
16674;DHT22;8450;52.654;10.326;2022-09-17T15:34:12;11.60;99.90
16674;DHT22;8450;52.654;10.326;2022-09-17T15:36:38;11.60;99.90
16674;DHT22;8450;52.654;10.326;2022-09-17T15:39:27;11.60;99.90
16674;DHT22;8450;52.654;10.326;2022-09-17T15:41:56;11.50;99.90
16674;DHT22;8450;52.654;10.326;2022-09-17T15:44:23;11.50;99.90
16674;DHT22;8450;52.654;10.326;2022-09-17T15:46:50;11.50;99.90
16674;DHT22;8450;52.654;10.326;2022-09-17T15:49:33;11.60;99.90
16674;DHT22;8450;52.654;10.326;2022-09-17T15:52:26;11.60;99.90
16674;DHT22;8450;52.654;10.326;2022-09-17T15:54:58;11.60;99.90
16674;DHT22;8450;52.654;10.326;2022-09-17T15:57:26;11.60;99.90
16674;DHT22;8450;52.654;10.326;2022-09-17T15:59:53;11.60;99.90
16674;DHT22;8450;52.654;10.326;2022-09-17T16:02:30;11.60;99.90
16674;DHT22;8450;52.654;10.326;2022-09-17T16:07:33;11.60;99.90
16674;DHT22;8450;52.654;10.326;2022-09-17T16:09:59;11.60;99.90
16674;DHT22;8450;52.654;10.326;2022-09-17T16:12:26;11.70;99.90
